DW0805 Weather Reports


time (UTC)temp
F
wind
direction
speed
knots
gust
knots
rain 1hr
in
rain 24hr
in
rain mn
in
humidity
%
barometer
mb
20221203043531 35 52 7.0 12.2 0.00 0.00 0.00 83 1030.4
20221203042531 35 40 7.8 12.2 0.00 0.00 0.00 83 1030.4
20221203040530 36 47 9.6 13.9 0.00 0.00 0.00 83 1030.5
20221203033530 36 70 7.0 11.3 0.00 0.00 0.00 83 1030.7
20221203032532 36 59 6.1 12.2 0.00 0.00 0.00 83 1030.8
20221203030530 36 63 7.8 13.0 0.00 0.00 0.00 82 1030.9
20221203015533 36 54 5.2 11.3 0.00 0.00 0.00 81 1031.2
20221203005531 36 60 6.1 11.3 0.00 0.00 0.00 83 1031.4
20221203003529 36 49 5.2 12.2 0.00 0.00 0.00 84 1031.4
20221203001531 36 39 4.3 11.3 0.00 0.00 0.00 84 1031.5
20221203000530 35 39 4.3 10.4 0.00 0.00 0.00 84 1031.6
20221202235531 35 54 6.1 10.4 0.00 0.00 0.00 85 1031.8
20221202233530 35 52 4.3 7.8 0.00 0.00 0.00 85 1031.9
20221202231510 35 63 2.6 5.2 0.00 0.00 0.00 84 1032.0
20221202223530 35 39 2.6 5.2 0.00 0.00 0.00 83 1032.0
20221202221535 36 47 2.6 6.1 0.00 0.00 0.00 81 1032.0
20221202204531 36 66 8.7 13.0 0.00 0.00 0.00 87 1032.2
20221202203530 36 53 5.2 8.7 0.00 0.00 0.00 89 1032.2
20221202202532 36 52 5.2 7.0 0.00 0.00 0.00 89 1032.1
20221202194532 36 45 4.3 7.8 0.00 0.00 0.00 90 1032.0
20221202193530 37 49 3.5 7.8 0.00 0.00 0.00 89 1032.0
20221202192530 37 44 2.6 6.1 0.00 0.00 0.00 89 1031.9
20221202191530 37 41 2.6 7.8 0.00 0.00 0.00 89 1031.8
20221202190530 37 47 4.3 5.2 0.00 0.00 0.00 89 1031.8
20221202184530 37 34 4.3 6.1 0.00 0.00 0.00 89 1031.8
20221202183530 37 45 2.6 7.8 0.00 0.00 0.00 90 1031.9
20221202182535 37 51 4.3 7.8 0.00 0.00 0.00 90 1031.9
20221202181531 37 59 2.6 8.7 0.00 0.00 0.00 89 1031.9
20221202174531 37 61 3.5 8.7 0.00 0.00 0.00 89 1031.7
20221202171532 38 48 6.1 12.2 0.00 0.00 0.00 88 1031.6
20221202164535 38 61 7.0 11.3 0.00 0.00 0.00 88 1031.6
20221202162532 38 42 5.2 11.3 0.00 0.00 0.00 88 1031.3
20221202160529 38 55 5.2 8.7 0.00 0.00 0.00 89 1031.2
20221202155532 38 52 6.1 11.3 0.00 0.00 0.00 89 1031.1
20221202150529 39 59 5.2 8.7 0.00 0.00 0.00 89 1031.2
20221202144533 39 51 3.5 7.0 0.00 0.00 0.00 89 1031.2
20221202143529 39 43 4.3 8.7 0.00 0.00 0.00 88 1031.1
20221202142529 39 53 4.3 7.8 0.00 0.00 0.00 88 1031.1
20221202133530 39 42 5.2 10.4 0.00 0.00 0.00 88 1031.0
20221202130530 40 36 5.2 8.7 0.00 0.00 0.00 88 1030.9
20221202124532 39 57 6.1 11.3 0.00 0.00 0.00 88 1030.9
20221202122530 40 31 4.3 8.7 0.00 0.00 0.00 88 1031.1
20221202120530 40 57 4.3 7.8 0.00 0.00 0.00 88 1031.1
20221202114532 40 46 5.2 8.7 0.00 0.00 0.00 88 1031.2
20221202113529 40 37 5.2 8.7 0.00 0.00 0.00 88 1031.3
20221202111535 39 62 5.2 10.4 0.00 0.00 0.00 88 1031.3
20221202110529 39 46 4.3 8.7 0.00 0.00 0.00 88 1031.4
20221202104535 39 55 5.2 8.7 0.00 0.00 0.00 88 1031.5
20221202103529 39 43 6.1 11.3 0.00 0.00 0.00 88 1031.5
20221202100529 39 37 5.2 7.8 0.00 0.00 0.00 89 1031.5
20221202094534 39 48 5.2 10.4 0.00 0.00 0.00 89 1031.6
20221202093529 39 50 5.2 10.4 0.00 0.00 0.00 89 1031.6
20221202092529 39 49 5.2 10.4 0.00 0.00 0.00 89 1031.7
20221202081535 38 52 4.3 8.7 0.00 0.00 0.00 89 1031.3
20221202080529 38 54 2.6 6.1 0.00 0.00 0.00 89 1031.3
20221202075529 38 49 2.6 5.2 0.00 0.00 0.00 89 1031.3
20221202074532 38 49 3.5 6.1 0.00 0.00 0.00 89 1031.3
20221202073529 38 49 2.6 5.2 0.00 0.00 0.00 89 1031.2
20221202071532 38 47 3.5 7.0 0.00 0.00 0.00 88 1031.2
20221202070529 38 54 5.2 7.8 0.00 0.00 0.00 88 1031.1
20221202065533 38 46 2.6 7.0 0.00 0.00 0.00 88 1031.1
20221202062529 38 65 5.2 10.4 0.00 0.00 0.00 88 1030.8
20221202060529 38 58 5.2 11.3 0.00 0.00 0.00 89 1030.8
20221202054529 38 71 4.3 8.7 0.00 0.00 0.00 90 1030.7
20221202051530 38 78 4.3 7.8 0.00 0.00 0.00 92 1030.6
20221202045529 38 58 6.1 10.4 0.00 0.00 0.00 92 1030.5